Terminal Aerodrome Forecast
Issued by NWS

Home | Current Version | Previous Version | Text Only | Print | Product List | Glossary On
Versions: 1 2 3 4 5 6 7 8 9 10 11 12 13
000
FTUS46 KSGX 242300
TAFSNA
TAF
KSNA 242339Z 2500/2524 VRB04KT P6SM FEW060
     FM250900 VRB04KT 3SM BR VCFG OVC004
      TEMPO 2510/2514 1SM BR VV002
     FM251500 VRB04KT 5SM HZ BKN007
     FM251800 23006KT P6SM FEW010=

USA.gov is the U.S. government's official web portal to all federal, state and local government web resources and services.